sensor_id;sensor_type;location;lat;lon;timestamp;pressure;altitude;pressure_sealevel;temperature;humidity
12626;BME280;6378;42.684;23.372;2023-01-25T00:01:51;96215.28;;;2.22;100.00
12626;BME280;6378;42.684;23.372;2023-01-25T00:04:21;96180.22;;;2.14;100.00
12626;BME280;6378;42.684;23.372;2023-01-25T00:06:47;96208.94;;;2.43;100.00
12626;BME280;6378;42.684;23.372;2023-01-25T00:09:14;96215.03;;;2.33;100.00
12626;BME280;6378;42.684;23.372;2023-01-25T00:11:40;96219.28;;;2.24;100.00
12626;BME280;6378;42.684;23.372;2023-01-25T00:14:05;96220.63;;;2.42;100.00
12626;BME280;6378;42.684;23.372;2023-01-25T00:16:31;96220.34;;;2.28;100.00
12626;BME280;6378;42.684;23.372;2023-01-25T00:18:56;96216.88;;;2.23;100.00
12626;BME280;6378;42.684;23.372;2023-01-25T00:21:24;96213.41;;;2.17;100.00
12626;BME280;6378;42.684;23.372;2023-01-25T00:23:50;96186.56;;;1.98;100.00
12626;BME280;6378;42.684;23.372;2023-01-25T00:26:16;96219.50;;;2.07;100.00
12626;BME280;6378;42.684;23.372;2023-01-25T00:28:41;96208.84;;;1.97;100.00
12626;BME280;6378;42.684;23.372;2023-01-25T00:31:10;96216.31;;;2.00;100.00
12626;BME280;6378;42.684;23.372;2023-01-25T00:33:48;96218.19;;;2.00;100.00
12626;BME280;6378;42.684;23.372;2023-01-25T00:39:01;96211.31;;;2.19;100.00
12626;BME280;6378;42.684;23.372;2023-01-25T00:41:26;96214.78;;;2.25;100.00
12626;BME280;6378;42.684;23.372;2023-01-25T00:43:52;96211.03;;;2.21;100.00
12626;BME280;6378;42.684;23.372;2023-01-25T00:46:18;96213.19;;;2.29;100.00
12626;BME280;6378;42.684;23.372;2023-01-25T00:48:43;96211.84;;;2.26;100.00
12626;BME280;6378;42.684;23.372;2023-01-25T00:51:09;96176.47;;;2.10;100.00
12626;BME280;6378;42.684;23.372;2023-01-25T00:53:35;96208.91;;;2.23;100.00
12626;BME280;6378;42.684;23.372;2023-01-25T00:56:01;96206.03;;;2.34;100.00
12626;BME280;6378;42.684;23.372;2023-01-25T00:58:26;96216.91;;;2.38;100.00
12626;BME280;6378;42.684;23.372;2023-01-25T01:00:52;96212.09;;;2.20;100.00
12626;BME280;6378;42.684;23.372;2023-01-25T01:03:18;96201.97;;;2.06;100.00
12626;BME280;6378;42.684;23.372;2023-01-25T01:05:43;96209.16;;;2.21;100.00
12626;BME280;6378;42.684;23.372;2023-01-25T01:08:09;96219.28;;;2.19;100.00
12626;BME280;6378;42.684;23.372;2023-01-25T01:10:35;96237.34;;;2.22;100.00
12626;BME280;6378;42.684;23.372;2023-01-25T01:13:01;96213.69;;;2.21;100.00
12626;BME280;6378;42.684;23.372;2023-01-25T01:15:26;96209.47;;;2.25;100.00
12626;BME280;6378;42.684;23.372;2023-01-25T01:17:51;96188.69;;;2.06;100.00
12626;BME280;6378;42.684;23.372;2023-01-25T01:20:17;96211.56;;;2.17;100.00
12626;BME280;6378;42.684;23.372;2023-01-25T01:22:42;96210.50;;;2.08;100.00
12626;BME280;6378;42.684;23.372;2023-01-25T01:25:08;96202.53;;;2.13;100.00
12626;BME280;6378;42.684;23.372;2023-01-25T01:27:33;96203.06;;;2.21;100.00
12626;BME280;6378;42.684;23.372;2023-01-25T01:29:59;96204.66;;;2.22;100.00
12626;BME280;6378;42.684;23.372;2023-01-25T01:32:24;96206.03;;;2.34;100.00
12626;BME280;6378;42.684;23.372;2023-01-25T01:34:49;96198.06;;;2.39;100.00
12626;BME280;6378;42.684;23.372;2023-01-25T01:37:15;96164.78;;;2.06;100.00
12626;BME280;6378;42.684;23.372;2023-01-25T01:39:40;96185.50;;;1.99;100.00
12626;BME280;6378;42.684;23.372;2023-01-25T01:42:06;96191.66;;;2.15;100.00
12626;BME280;6378;42.684;23.372;2023-01-25T01:47:17;96183.69;;;2.30;100.00
12626;BME280;6378;42.684;23.372;2023-01-25T01:49:59;96190.06;;;2.24;100.00
12626;BME280;6378;42.684;23.372;2023-01-25T01:52:30;96178.91;;;2.22;100.00
12626;BME280;6378;42.684;23.372;2023-01-25T01:57:39;96186.34;;;2.40;100.00
12626;BME280;6378;42.684;23.372;2023-01-25T02:02:37;96151.03;;;2.30;100.00
12626;BME280;6378;42.684;23.372;2023-01-25T02:05:06;96190.84;;;2.45;100.00
12626;BME280;6378;42.684;23.372;2023-01-25T02:07:36;96164.03;;;2.31;100.00
12626;BME280;6378;42.684;23.372;2023-01-25T02:10:04;96182.38;;;2.58;100.00
12626;BME280;6378;42.684;23.372;2023-01-25T02:12:30;96187.41;;;2.59;100.00
12626;BME280;6378;42.684;23.372;2023-01-25T02:14:56;96184.50;;;2.61;100.00
12626;BME280;6378;42.684;23.372;2023-01-25T02:17:26;96157.13;;;2.35;100.00
12626;BME280;6378;42.684;23.372;2023-01-25T02:25:23;96185.03;;;2.48;100.00
12626;BME280;6378;42.684;23.372;2023-01-25T02:27:53;96186.09;;;2.52;100.00
12626;BME280;6378;42.684;23.372;2023-01-25T02:30:20;96171.50;;;2.44;100.00
12626;BME280;6378;42.684;23.372;2023-01-25T02:32:45;96174.13;;;2.49;100.00
12626;BME280;6378;42.684;23.372;2023-01-25T02:35:22;96181.31;;;2.44;100.00
12626;BME280;6378;42.684;23.372;2023-01-25T02:37:49;96181.31;;;2.39;100.00
12626;BME280;6378;42.684;23.372;2023-01-25T02:40:16;96178.66;;;2.39;100.00
12626;BME280;6378;42.684;23.372;2023-01-25T02:42:43;96176.50;;;2.26;100.00
12626;BME280;6378;42.684;23.372;2023-01-25T02:45:13;96178.38;;;2.35;100.00
12626;BME280;6378;42.684;23.372;2023-01-25T02:47:39;96179.72;;;2.38;100.00
12626;BME280;6378;42.684;23.372;2023-01-25T02:50:05;96170.13;;;2.32;100.00
12626;BME280;6378;42.684;23.372;2023-01-25T02:52:30;96158.19;;;2.29;100.00
12626;BME280;6378;42.684;23.372;2023-01-25T02:54:55;96171.75;;;2.38;100.00
12626;BME280;6378;42.684;23.372;2023-01-25T02:57:21;96176.81;;;2.39;100.00
12626;BME280;6378;42.684;23.372;2023-01-25T02:59:46;96170.94;;;2.32;100.00
12626;BME280;6378;42.684;23.372;2023-01-25T03:02:12;96179.72;;;2.43;100.00
12626;BME280;6378;42.684;23.372;2023-01-25T03:04:38;96173.84;;;2.46;100.00
12626;BME280;6378;42.684;23.372;2023-01-25T03:07:03;96180.22;;;2.50;100.00
12626;BME280;6378;42.684;23.372;2023-01-25T03:09:29;96175.47;;;2.47;100.00
12626;BME280;6378;42.684;23.372;2023-01-25T03:11:54;96182.88;;;2.40;100.00
12626;BME280;6378;42.684;23.372;2023-01-25T03:14:19;96186.63;;;2.29;100.00
12626;BME280;6378;42.684;23.372;2023-01-25T03:16:45;96180.75;;;2.32;100.00
12626;BME280;6378;42.684;23.372;2023-01-25T03:19:10;96177.28;;;2.21;100.00
12626;BME280;6378;42.684;23.372;2023-01-25T03:21:36;96187.13;;;2.31;100.00
12626;BME280;6378;42.684;23.372;2023-01-25T03:24:01;96182.09;;;2.34;100.00
12626;BME280;6378;42.684;23.372;2023-01-25T03:26:27;96178.13;;;2.37;100.00
12626;BME280;6378;42.684;23.372;2023-01-25T03:28:53;96136.38;;;2.07;100.00
12626;BME280;6378;42.684;23.372;2023-01-25T03:31:19;96170.38;;;2.25;100.00
12626;BME280;6378;42.684;23.372;2023-01-25T03:33:45;96164.56;;;2.23;100.00
12626;BME280;6378;42.684;23.372;2023-01-25T03:36:11;96171.47;;;2.14;100.00
12626;BME280;6378;42.684;23.372;2023-01-25T03:38:36;96177.03;;;2.12;100.00
12626;BME280;6378;42.684;23.372;2023-01-25T03:41:03;96185.00;;;2.12;100.00
12626;BME280;6378;42.684;23.372;2023-01-25T03:43:29;96176.47;;;2.10;100.00
12626;BME280;6378;42.684;23.372;2023-01-25T03:45:56;96156.31;;;2.04;100.00
12626;BME280;6378;42.684;23.372;2023-01-25T03:48:23;96169.06;;;2.12;100.00
12626;BME280;6378;42.684;23.372;2023-01-25T03:50:54;96173.31;;;2.18;100.00
12626;BME280;6378;42.684;23.372;2023-01-25T03:53:19;96166.66;;;2.21;100.00
12626;BME280;6378;42.684;23.372;2023-01-25T03:55:54;96152.88;;;2.24;100.00
12626;BME280;6378;42.684;23.372;2023-01-25T03:58:20;96172.25;;;2.45;100.00
12626;BME280;6378;42.684;23.372;2023-01-25T04:00:46;96168.28;;;2.32;100.00
12626;BME280;6378;42.684;23.372;2023-01-25T04:03:11;96134.00;;;2.05;100.00
12626;BME280;6378;42.684;23.372;2023-01-25T04:05:37;96162.16;;;2.32;100.00
12626;BME280;6378;42.684;23.372;2023-01-25T04:08:02;96157.91;;;2.41;100.00
12626;BME280;6378;42.684;23.372;2023-01-25T04:10:28;96151.00;;;2.14;100.00
12626;BME280;6378;42.684;23.372;2023-01-25T04:12:53;96162.16;;;2.11;100.00
12626;BME280;6378;42.684;23.372;2023-01-25T04:15:18;96131.56;;;1.79;100.00
12626;BME280;6378;42.684;23.372;2023-01-25T04:17:44;96163.47;;;1.94;100.00
12626;BME280;6378;42.684;23.372;2023-01-25T04:20:10;96169.84;;;2.03;100.00
12626;BME280;6378;42.684;23.372;2023-01-25T04:22:35;96162.91;;;1.87;100.00
12626;BME280;6378;42.684;23.372;2023-01-25T04:25:00;96158.13;;;1.89;100.00
12626;BME280;6378;42.684;23.372;2023-01-25T04:27:26;96155.22;;;1.90;100.00
12626;BME280;6378;42.684;23.372;2023-01-25T04:29:51;96157.59;;;1.87;100.00
12626;BME280;6378;42.684;23.372;2023-01-25T04:32:17;96155.47;;;1.79;100.00
12626;BME280;6378;42.684;23.372;2023-01-25T04:34:43;96129.66;;;1.59;100.00
12626;BME280;6378;42.684;23.372;2023-01-25T04:37:09;96165.53;;;1.77;100.00
12626;BME280;6378;42.684;23.372;2023-01-25T04:39:34;96176.72;;;1.84;100.00
12626;BME280;6378;42.684;23.372;2023-01-25T04:41:59;96172.22;;;1.94;100.00
12626;BME280;6378;42.684;23.372;2023-01-25T04:44:25;96172.22;;;1.89;100.00
12626;BME280;6378;42.684;23.372;2023-01-25T04:46:50;96172.75;;;1.96;100.00
12626;BME280;6378;42.684;23.372;2023-01-25T04:49:16;96168.78;;;1.99;100.00
12626;BME280;6378;42.684;23.372;2023-01-25T04:51:41;96177.81;;;2.08;100.00
12626;BME280;6378;42.684;23.372;2023-01-25T04:54:06;96169.03;;;2.02;100.00
12626;BME280;6378;42.684;23.372;2023-01-25T04:56:32;96169.06;;;2.07;100.00
12626;BME280;6378;42.684;23.372;2023-01-25T04:58:57;96170.34;;;1.90;100.00
12626;BME280;6378;42.684;23.372;2023-01-25T05:01:23;96170.88;;;1.97;100.00
12626;BME280;6378;42.684;23.372;2023-01-25T05:03:48;96164.28;;;2.04;100.00
12626;BME280;6378;42.684;23.372;2023-01-25T05:06:13;96166.13;;;2.04;100.00
12626;BME280;6378;42.684;23.372;2023-01-25T05:08:39;96142.47;;;1.87;100.00
12626;BME280;6378;42.684;23.372;2023-01-25T05:11:04;96170.38;;;2.00;100.00
12626;BME280;6378;42.684;23.372;2023-01-25T05:13:30;96170.91;;;2.07;100.00
12626;BME280;6378;42.684;23.372;2023-01-25T05:15:55;96161.88;;;2.03;100.00
12626;BME280;6378;42.684;23.372;2023-01-25T05:18:22;96156.03;;;1.86;100.00
12626;BME280;6378;42.684;23.372;2023-01-25T05:20:53;96160.25;;;1.87;100.00
12626;BME280;6378;42.684;23.372;2023-01-25T05:23:18;96156.28;;;1.84;100.00
12626;BME280;6378;42.684;23.372;2023-01-25T05:25:43;96153.34;;;1.81;100.00
12626;BME280;6378;42.684;23.372;2023-01-25T05:28:27;96144.31;;;1.82;100.00
12626;BME280;6378;42.684;23.372;2023-01-25T05:30:53;96164.47;;;1.78;100.00
12626;BME280;6378;42.684;23.372;2023-01-25T05:33:18;96162.59;;;1.73;100.00
12626;BME280;6378;42.684;23.372;2023-01-25T05:35:43;96168.13;;;1.61;100.00
12626;BME280;6378;42.684;23.372;2023-01-25T05:38:09;96170.03;;;1.66;100.00
12626;BME280;6378;42.684;23.372;2023-01-25T05:40:34;96135.19;;;1.42;100.00
12626;BME280;6378;42.684;23.372;2023-01-25T05:43:00;96164.69;;;1.56;100.00
12626;BME280;6378;42.684;23.372;2023-01-25T05:45:25;96163.38;;;1.58;100.00
12626;BME280;6378;42.684;23.372;2023-01-25T05:47:52;96162.31;;;1.64;100.00
12626;BME280;6378;42.684;23.372;2023-01-25T05:50:18;96182.53;;;1.70;100.00
12626;BME280;6378;42.684;23.372;2023-01-25T05:52:45;96175.63;;;1.74;100.00
12626;BME280;6378;42.684;23.372;2023-01-25T05:55:10;96142.41;;;1.67;100.00
12626;BME280;6378;42.684;23.372;2023-01-25T05:57:36;96143.72;;;1.59;100.00
12626;BME280;6378;42.684;23.372;2023-01-25T06:00:03;96192.56;;;1.63;100.00
12626;BME280;6378;42.684;23.372;2023-01-25T06:02:28;96170.53;;;1.63;100.00
12626;BME280;6378;42.684;23.372;2023-01-25T06:04:54;96174.25;;;1.67;100.00
12626;BME280;6378;42.684;23.372;2023-01-25T06:07:19;96170.28;;;1.64;100.00
12626;BME280;6378;42.684;23.372;2023-01-25T06:09:44;96169.25;;;1.76;100.00
12626;BME280;6378;42.684;23.372;2023-01-25T06:12:10;96170.34;;;1.85;100.00
12626;BME280;6378;42.684;23.372;2023-01-25T06:14:35;96173.56;;;2.02;100.00
12626;BME280;6378;42.684;23.372;2023-01-25T06:17:01;96178.34;;;2.00;100.00
12626;BME280;6378;42.684;23.372;2023-01-25T06:19:26;96181.25;;;2.03;100.00
12626;BME280;6378;42.684;23.372;2023-01-25T06:21:52;96182.31;;;2.02;100.00
12626;BME280;6378;42.684;23.372;2023-01-25T06:24:17;96173.03;;;2.00;100.00
12626;BME280;6378;42.684;23.372;2023-01-25T06:26:43;96175.41;;;2.01;100.00
12626;BME280;6378;42.684;23.372;2023-01-25T06:29:08;96168.53;;;2.00;100.00
12626;BME280;6378;42.684;23.372;2023-01-25T06:31:33;96184.16;;;2.02;100.00
12626;BME280;6378;42.684;23.372;2023-01-25T06:33:59;96176.47;;;1.85;100.00
12626;BME280;6378;42.684;23.372;2023-01-25T06:36:28;96181.78;;;1.95;100.00
12626;BME280;6378;42.684;23.372;2023-01-25T06:38:54;96177.25;;;1.81;100.00
12626;BME280;6378;42.684;23.372;2023-01-25T06:41:20;96153.00;;;1.62;100.00
12626;BME280;6378;42.684;23.372;2023-01-25T06:43:46;96172.44;;;1.78;100.00
12626;BME280;6378;42.684;23.372;2023-01-25T06:46:14;96167.38;;;1.76;100.00
12626;BME280;6378;42.684;23.372;2023-01-25T06:48:40;96167.63;;;1.64;100.00
12626;BME280;6378;42.684;23.372;2023-01-25T06:51:10;96165.53;;;1.82;100.00
12626;BME280;6378;42.684;23.372;2023-01-25T06:53:38;96169.28;;;1.86;100.00
12626;BME280;6378;42.684;23.372;2023-01-25T06:56:06;96176.47;;;1.90;100.00
12626;BME280;6378;42.684;23.372;2023-01-25T06:58:32;96178.63;;;2.08;100.00
12626;BME280;6378;42.684;23.372;2023-01-25T07:01:04;96183.94;;;2.18;100.00
12626;BME280;6378;42.684;23.372;2023-01-25T07:03:31;96160.78;;;1.89;100.00
12626;BME280;6378;42.684;23.372;2023-01-25T07:06:00;96182.84;;;1.94;100.00
12626;BME280;6378;42.684;23.372;2023-01-25T07:08:27;96174.88;;;1.89;100.00
12626;BME280;6378;42.684;23.372;2023-01-25T07:10:56;96179.38;;;1.84;100.00
12626;BME280;6378;42.684;23.372;2023-01-25T07:13:23;96170.59;;;1.83;100.00
12626;BME280;6378;42.684;23.372;2023-01-25T07:15:56;96097.56;;;1.50;100.00
12626;BME280;6378;42.684;23.372;2023-01-25T07:18:23;96171.94;;;1.91;100.00
12626;BME280;6378;42.684;23.372;2023-01-25T07:20:48;96170.59;;;1.88;100.00
12626;BME280;6378;42.684;23.372;2023-01-25T07:23:14;96182.22;;;1.67;100.00
12626;BME280;6378;42.684;23.372;2023-01-25T07:25:44;96173.97;;;1.58;100.00
12626;BME280;6378;42.684;23.372;2023-01-25T07:28:10;96159.28;;;1.30;100.00
12626;BME280;6378;42.684;23.372;2023-01-25T07:30:35;96178.41;;;1.43;100.00
12626;BME280;6378;42.684;23.372;2023-01-25T07:33:01;96173.91;;;1.43;100.00
12626;BME280;6378;42.684;23.372;2023-01-25T07:35:26;96181.41;;;1.51;100.00
12626;BME280;6378;42.684;23.372;2023-01-25T07:37:52;96195.97;;;1.49;100.00
12626;BME280;6378;42.684;23.372;2023-01-25T07:40:17;96080.81;;;0.72;100.00
12626;BME280;6378;42.684;23.372;2023-01-25T07:42:42;96184.53;;;1.43;100.00
12626;BME280;6378;42.684;23.372;2023-01-25T07:45:08;96195.16;;;1.48;100.00
12626;BME280;6378;42.684;23.372;2023-01-25T07:47:34;96192.53;;;1.53;100.00
12626;BME280;6378;42.684;23.372;2023-01-25T07:49:59;96193.31;;;1.54;100.00
12626;BME280;6378;42.684;23.372;2023-01-25T07:52:25;96201.56;;;1.62;100.00
12626;BME280;6378;42.684;23.372;2023-01-25T07:54:50;96201.31;;;1.64;100.00
12626;BME280;6378;42.684;23.372;2023-01-25T07:57:16;96199.25;;;1.71;100.00
12626;BME280;6378;42.684;23.372;2023-01-25T07:59:41;96200.34;;;1.85;100.00
12626;BME280;6378;42.684;23.372;2023-01-25T08:02:09;96217.78;;;5.24;100.00
12626;BME280;6378;42.684;23.372;2023-01-25T08:04:35;96202.84;;;2.47;100.00
12626;BME280;6378;42.684;23.372;2023-01-25T08:07:01;96198.81;;;2.04;100.00
12626;BME280;6378;42.684;23.372;2023-01-25T08:09:26;96180.19;;;1.94;100.00
12626;BME280;6378;42.684;23.372;2023-01-25T08:11:52;96186.81;;;2.02;100.00
12626;BME280;6378;42.684;23.372;2023-01-25T08:14:18;96162.34;;;1.69;100.00
12626;BME280;6378;42.684;23.372;2023-01-25T08:16:43;96189.22;;;1.98;100.00
12626;BME280;6378;42.684;23.372;2023-01-25T08:19:09;96185.00;;;2.12;100.00
12626;BME280;6378;42.684;23.372;2023-01-25T08:21:35;96191.38;;;2.16;100.00
12626;BME280;6378;42.684;23.372;2023-01-25T08:24:04;96187.41;;;2.14;100.00
12626;BME280;6378;42.684;23.372;2023-01-25T08:26:30;96176.75;;;2.04;100.00
12626;BME280;6378;42.684;23.372;2023-01-25T08:28:55;96179.91;;;2.01;100.00
12626;BME280;6378;42.684;23.372;2023-01-25T08:31:26;96173.50;;;1.82;100.00
12626;BME280;6378;42.684;23.372;2023-01-25T08:33:52;96187.88;;;2.01;100.00
12626;BME280;6378;42.684;23.372;2023-01-25T08:36:18;96179.41;;;2.09;100.00
12626;BME280;6378;42.684;23.372;2023-01-25T08:38:45;96185.00;;;2.17;100.00
12626;BME280;6378;42.684;23.372;2023-01-25T08:41:13;96167.97;;;1.88;100.00
12626;BME280;6378;42.684;23.372;2023-01-25T08:43:40;96181.28;;;2.08;100.00
12626;BME280;6378;42.684;23.372;2023-01-25T08:46:05;96174.09;;;1.99;100.00
12626;BME280;6378;42.684;23.372;2023-01-25T08:48:31;96198.25;;;2.07;100.00
12626;BME280;6378;42.684;23.372;2023-01-25T08:50:57;96169.81;;;1.93;100.00
12626;BME280;6378;42.684;23.372;2023-01-25T08:53:22;96177.25;;;2.01;100.00
12626;BME280;6378;42.684;23.372;2023-01-25T08:55:48;96177.25;;;2.01;100.00
12626;BME280;6378;42.684;23.372;2023-01-25T08:58:15;96180.75;;;2.16;100.00
12626;BME280;6378;42.684;23.372;2023-01-25T09:00:43;96173.56;;;2.02;100.00
12626;BME280;6378;42.684;23.372;2023-01-25T09:03:09;96162.13;;;1.96;100.00
12626;BME280;6378;42.684;23.372;2023-01-25T09:05:37;96185.28;;;2.26;100.00
12626;BME280;6378;42.684;23.372;2023-01-25T09:08:04;96186.03;;;2.11;100.00
12626;BME280;6378;42.684;23.372;2023-01-25T09:10:30;96149.66;;;1.97;100.00
12626;BME280;6378;42.684;23.372;2023-01-25T09:12:55;96166.94;;;2.04;100.00
12626;BME280;6378;42.684;23.372;2023-01-25T09:15:21;96169.06;;;2.17;100.00
12626;BME280;6378;42.684;23.372;2023-01-25T09:17:50;96176.50;;;2.21;100.00
12626;BME280;6378;42.684;23.372;2023-01-25T09:20:15;96175.44;;;2.16;100.00
12626;BME280;6378;42.684;23.372;2023-01-25T09:22:41;96166.66;;;2.16;100.00
12626;BME280;6378;42.684;23.372;2023-01-25T09:25:07;96149.91;;;2.05;100.00
12626;BME280;6378;42.684;23.372;2023-01-25T09:27:32;96156.03;;;2.11;100.00
12626;BME280;6378;42.684;23.372;2023-01-25T09:29:58;96158.97;;;2.04;100.00
12626;BME280;6378;42.684;23.372;2023-01-25T09:32:23;96154.44;;;2.00;100.00
12626;BME280;6378;42.684;23.372;2023-01-25T09:34:49;96143.56;;;2.06;100.00
12626;BME280;6378;42.684;23.372;2023-01-25T09:37:14;96149.69;;;2.22;100.00
12626;BME280;6378;42.684;23.372;2023-01-25T09:39:39;96148.88;;;2.27;100.00
12626;BME280;6378;42.684;23.372;2023-01-25T09:44:54;96136.66;;;2.51;100.00
12626;BME280;6378;42.684;23.372;2023-01-25T09:55:36;96117.00;;;2.62;100.00
12626;BME280;6378;42.684;23.372;2023-01-25T09:58:02;96118.59;;;2.58;100.00
12626;BME280;6378;42.684;23.372;2023-01-25T10:00:32;96108.22;;;2.56;100.00
12626;BME280;6378;42.684;23.372;2023-01-25T10:03:04;96093.53;;;2.79;100.00
12626;BME280;6378;42.684;23.372;2023-01-25T10:05:45;96090.06;;;2.84;100.00
12626;BME280;6378;42.684;23.372;2023-01-25T10:11:26;96084.72;;;2.94;100.00
12626;BME280;6378;42.684;23.372;2023-01-25T10:13:53;96085.25;;;3.01;100.00
12626;BME280;6378;42.684;23.372;2023-01-25T10:16:43;96071.72;;;2.92;100.00
12626;BME280;6378;42.684;23.372;2023-01-25T10:28:06;96058.63;;;3.06;100.00
12626;BME280;6378;42.684;23.372;2023-01-25T10:30:57;96051.94;;;3.14;100.00
12626;BME280;6378;42.684;23.372;2023-01-25T10:33:26;96027.19;;;3.18;100.00
12626;BME280;6378;42.684;23.372;2023-01-25T10:35:54;96050.84;;;3.20;100.00
12626;BME280;6378;42.684;23.372;2023-01-25T10:40:55;96035.66;;;3.25;100.00
12626;BME280;6378;42.684;23.372;2023-01-25T10:43:22;96043.88;;;3.34;100.00
12626;BME280;6378;42.684;23.372;2023-01-25T10:45:48;96015.16;;;3.31;100.00
12626;BME280;6378;42.684;23.372;2023-01-25T10:48:23;96029.38;;;3.55;100.00
12626;BME280;6378;42.684;23.372;2023-01-25T10:50:52;96023.38;;;3.34;100.00
12626;BME280;6378;42.684;23.372;2023-01-25T10:53:38;96023.09;;;3.41;100.00
12626;BME280;6378;42.684;23.372;2023-01-25T10:58:38;96006.84;;;3.37;100.00
12626;BME280;6378;42.684;23.372;2023-01-25T11:01:07;96026.03;;;3.34;100.00
12626;BME280;6378;42.684;23.372;2023-01-25T11:03:40;95976.38;;;3.20;100.00
12626;BME280;6378;42.684;23.372;2023-01-25T11:06:07;96007.88;;;3.46;100.00
12626;BME280;6378;42.684;23.372;2023-01-25T11:08:38;96009.50;;;3.37;100.00
12626;BME280;6378;42.684;23.372;2023-01-25T11:11:26;96006.47;;;3.15;100.00
12626;BME280;6378;42.684;23.372;2023-01-25T11:13:55;95993.78;;;2.97;100.00
12626;BME280;6378;42.684;23.372;2023-01-25T11:16:37;96008.28;;;3.25;100.00
12626;BME280;6378;42.684;23.372;2023-01-25T11:19:27;95995.47;;;3.32;100.00
12626;BME280;6378;42.684;23.372;2023-01-25T11:21:56;95986.06;;;3.44;100.00
12626;BME280;6378;42.684;23.372;2023-01-25T11:24:33;95989.22;;;3.52;100.00
12626;BME280;6378;42.684;23.372;2023-01-25T11:27:14;95987.69;;;3.40;100.00
12626;BME280;6378;42.684;23.372;2023-01-25T11:29:40;95983.97;;;3.41;100.00
12626;BME280;6378;42.684;23.372;2023-01-25T11:32:32;95994.09;;;3.39;100.00
12626;BME280;6378;42.684;23.372;2023-01-25T11:34:58;95987.94;;;3.44;100.00
12626;BME280;6378;42.684;23.372;2023-01-25T11:37:34;95978.66;;;3.41;100.00
12626;BME280;6378;42.684;23.372;2023-01-25T11:40:27;95975.69;;;3.43;100.00
12626;BME280;6378;42.684;23.372;2023-01-25T11:43:05;95976.19;;;3.50;100.00
12626;BME280;6378;42.684;23.372;2023-01-25T11:50:56;95951.09;;;3.61;100.00
12626;BME280;6378;42.684;23.372;2023-01-25T11:56:23;95949.16;;;3.67;100.00
12626;BME280;6378;42.684;23.372;2023-01-25T11:59:08;95942.00;;;3.62;100.00
12626;BME280;6378;42.684;23.372;2023-01-25T12:01:56;95941.78;;;3.59;100.00
12626;BME280;6378;42.684;23.372;2023-01-25T12:07:06;95937.41;;;3.39;100.00
12626;BME280;6378;42.684;23.372;2023-01-25T12:10:02;95939.47;;;3.47;100.00
12626;BME280;6378;42.684;23.372;2023-01-25T12:12:42;95915.38;;;3.28;100.00
12626;BME280;6378;42.684;23.372;2023-01-25T12:30:25;95922.72;;;3.46;100.00
12626;BME280;6378;42.684;23.372;2023-01-25T12:33:01;95906.81;;;3.41;100.00
12626;BME280;6378;42.684;23.372;2023-01-25T12:40:53;95911.69;;;3.58;100.00
12626;BME280;6378;42.684;23.372;2023-01-25T12:43:26;95898.56;;;3.38;100.00
12626;BME280;6378;42.684;23.372;2023-01-25T12:45:54;95905.78;;;3.32;100.00
12626;BME280;6378;42.684;23.372;2023-01-25T12:48:29;95890.81;;;3.08;100.00
12626;BME280;6378;42.684;23.372;2023-01-25T12:51:10;95905.28;;;3.30;100.00
12626;BME280;6378;42.684;23.372;2023-01-25T12:53:39;95891.13;;;3.35;100.00
12626;BME280;6378;42.684;23.372;2023-01-25T12:56:07;95870.03;;;3.10;100.00
12626;BME280;6378;42.684;23.372;2023-01-25T13:09:52;95883.56;;;3.47;100.00
12626;BME280;6378;42.684;23.372;2023-01-25T13:12:22;95883.50;;;3.57;100.00
12626;BME280;6378;42.684;23.372;2023-01-25T13:14:54;95881.47;;;3.44;100.00
12626;BME280;6378;42.684;23.372;2023-01-25T13:17:32;95865.88;;;3.32;100.00
12626;BME280;6378;42.684;23.372;2023-01-25T13:28:58;95873.84;;;2.98;100.00
12626;BME280;6378;42.684;23.372;2023-01-25T13:31:43;95861.22;;;2.80;100.00
12626;BME280;6378;42.684;23.372;2023-01-25T13:34:11;95872.56;;;2.91;100.00
12626;BME280;6378;42.684;23.372;2023-01-25T13:39:47;95886.63;;;2.96;100.00
12626;BME280;6378;42.684;23.372;2023-01-25T13:42:22;95882.47;;;2.80;100.00
12626;BME280;6378;42.684;23.372;2023-01-25T13:51:19;95898.78;;;2.64;100.00
12626;BME280;6378;42.684;23.372;2023-01-25T13:57:27;95901.22;;;2.50;100.00
12626;BME280;6378;42.684;23.372;2023-01-25T14:00:04;95897.47;;;2.61;100.00
12626;BME280;6378;42.684;23.372;2023-01-25T14:02:30;95892.09;;;2.71;100.00
12626;BME280;6378;42.684;23.372;2023-01-25T14:04:57;95877.81;;;2.57;100.00
12626;BME280;6378;42.684;23.372;2023-01-25T14:07:28;95860.13;;;2.32;100.00
12626;BME280;6378;42.684;23.372;2023-01-25T14:10:08;95893.78;;;2.57;100.00
12626;BME280;6378;42.684;23.372;2023-01-25T14:12:41;95890.81;;;2.64;100.00
12626;BME280;6378;42.684;23.372;2023-01-25T14:15:21;95895.56;;;2.72;100.00
12626;BME280;6378;42.684;23.372;2023-01-25T14:18:16;95893.97;;;2.66;100.00
12626;BME280;6378;42.684;23.372;2023-01-25T14:20:45;95891.31;;;2.66;100.00
12626;BME280;6378;42.684;23.372;2023-01-25T14:23:29;95890.75;;;2.74;100.00
12626;BME280;6378;42.684;23.372;2023-01-25T14:25:57;95862.97;;;2.51;100.00
12626;BME280;6378;42.684;23.372;2023-01-25T14:28:24;95882.34;;;2.56;100.00
12626;BME280;6378;42.684;23.372;2023-01-25T14:30:55;95870.31;;;2.69;100.00
12626;BME280;6378;42.684;23.372;2023-01-25T14:33:25;95884.06;;;2.81;100.00
12626;BME280;6378;42.684;23.372;2023-01-25T14:35:52;95879.56;;;2.82;100.00
12626;BME280;6378;42.684;23.372;2023-01-25T14:40:53;95877.78;;;2.67;100.00
12626;BME280;6378;42.684;23.372;2023-01-25T14:43:20;95874.63;;;2.55;100.00
12626;BME280;6378;42.684;23.372;2023-01-25T14:45:47;95873.41;;;2.37;100.00
12626;BME280;6378;42.684;23.372;2023-01-25T14:48:34;95875.81;;;2.34;100.00
12626;BME280;6378;42.684;23.372;2023-01-25T14:51:15;95863.41;;;2.14;100.00
12626;BME280;6378;42.684;23.372;2023-01-25T14:53:45;95863.09;;;2.26;100.00
12626;BME280;6378;42.684;23.372;2023-01-25T14:59:02;95872.16;;;2.20;100.00
12626;BME280;6378;42.684;23.372;2023-01-25T15:01:38;95887.56;;;2.12;100.00